AZU8431 SBBR-SACO
Flight info
| Callsign | AZU8431 |
|---|---|
| Flight time | N/A |
| Altitude | FL340 |
| Route | UMSU1A SIREM UM403 VAS UM529 ARPAS UZ124 SIS UL531 TREJO TREJ1U |
| Aircraft | A20N/M-VGDW/C |
Departure
| Time | N/A |
|---|---|
| Airport | Presidente Juscelino Kubitschek International Airport (SBBR) |
Arrival
| Time | 2026-05-05 18:29 |
|---|---|
| Airport | Ingeniero Aeronáutico Ambrosio L.V. Taravella International Airport (SACO) |
| Time | Latitude | Longitude | Altitude | Speed | Heading |
|---|---|---|---|---|---|
| 2026-05-05 15:22 | -18.05187 | -50.07839 | 23863 ft | 405 kts | 221° |
| 2026-05-05 15:22 | -18.07265 | -50.09829 | 24185 ft | 406 kts | 221° |
| 2026-05-05 15:22 | -18.09352 | -50.11827 | 24509 ft | 408 kts | 221° |
| 2026-05-05 15:22 | -18.11444 | -50.13831 | 24834 ft | 409 kts | 221° |
| 2026-05-05 15:23 | -18.13547 | -50.15846 | 25159 ft | 411 kts | 221° |
| 2026-05-05 15:23 | -18.15668 | -50.17879 | 25485 ft | 413 kts | 221° |
| 2026-05-05 15:23 | -18.17787 | -50.19911 | 25810 ft | 415 kts | 221° |
| 2026-05-05 15:23 | -18.19922 | -50.21959 | 26135 ft | 417 kts | 221° |
| 2026-05-05 15:24 | -18.22069 | -50.24020 | 26460 ft | 419 kts | 221° |
| 2026-05-05 15:24 | -18.24222 | -50.26087 | 26785 ft | 421 kts | 221° |
| 2026-05-05 15:24 | -18.26394 | -50.28175 | 27112 ft | 423 kts | 222° |
| 2026-05-05 15:24 | -18.28565 | -50.30262 | 27437 ft | 425 kts | 222° |
| 2026-05-05 15:25 | -18.30749 | -50.32362 | 27762 ft | 427 kts | 222° |
| 2026-05-05 15:25 | -18.32937 | -50.34467 | 28087 ft | 429 kts | 222° |
| 2026-05-05 15:25 | -18.35135 | -50.36583 | 28412 ft | 430 kts | 222° |
| 2026-05-05 15:25 | -18.37349 | -50.38714 | 28738 ft | 432 kts | 222° |
| 2026-05-05 15:26 | -18.39565 | -50.40849 | 29063 ft | 434 kts | 222° |
| 2026-05-05 15:26 | -18.41782 | -50.42986 | 29386 ft | 436 kts | 222° |
| 2026-05-05 15:26 | -18.44025 | -50.45149 | 29713 ft | 438 kts | 222° |
| 2026-05-05 15:26 | -18.46267 | -50.47312 | 30038 ft | 440 kts | 222° |
| 2026-05-05 15:27 | -18.48530 | -50.49485 | 30364 ft | 441 kts | 222° |
| 2026-05-05 15:27 | -18.50794 | -50.51652 | 30688 ft | 442 kts | 222° |
| 2026-05-05 15:27 | -18.53072 | -50.53829 | 31014 ft | 443 kts | 222° |
| 2026-05-05 15:27 | -18.55362 | -50.56014 | 31339 ft | 445 kts | 222° |
| 2026-05-05 15:28 | -18.57651 | -50.58198 | 31664 ft | 446 kts | 222° |
| 2026-05-05 15:28 | -18.59952 | -50.60394 | 31989 ft | 448 kts | 222° |
| 2026-05-05 15:28 | -18.62253 | -50.62590 | 32313 ft | 449 kts | 222° |
| 2026-05-05 15:28 | -18.64568 | -50.64802 | 32638 ft | 449 kts | 222° |
| 2026-05-05 15:29 | -18.66879 | -50.67009 | 32963 ft | 450 kts | 222° |
| 2026-05-05 15:29 | -18.69189 | -50.69214 | 33287 ft | 450 kts | 223° |
| 2026-05-05 15:29 | -18.71504 | -50.71425 | 33612 ft | 449 kts | 223° |
| 2026-05-05 15:29 | -18.73812 | -50.73630 | 33936 ft | 449 kts | 223° |
| 2026-05-05 15:30 | -18.76130 | -50.75845 | 34148 ft | 451 kts | 223° |
| 2026-05-05 15:30 | -18.78455 | -50.78069 | 34255 ft | 455 kts | 223° |
| 2026-05-05 15:30 | -18.80806 | -50.80321 | 34299 ft | 459 kts | 223° |
| 2026-05-05 15:31 | -18.85526 | -50.84876 | 34304 ft | 462 kts | 223° |
| 2026-05-05 15:31 | -18.90249 | -50.89492 | 34302 ft | 464 kts | 223° |
| 2026-05-05 15:32 | -18.94961 | -50.94131 | 34301 ft | 465 kts | 224° |
| 2026-05-05 15:32 | -18.99676 | -50.98790 | 34302 ft | 465 kts | 224° |
| 2026-05-05 15:33 | -19.04399 | -51.03452 | 34306 ft | 465 kts | 224° |
| 2026-05-05 15:33 | -19.09109 | -51.08101 | 34310 ft | 465 kts | 223° |
| 2026-05-05 15:34 | -19.13830 | -51.12761 | 34315 ft | 466 kts | 223° |
| 2026-05-05 15:34 | -19.18564 | -51.17435 | 34322 ft | 465 kts | 224° |
| 2026-05-05 15:35 | -19.23273 | -51.22088 | 34327 ft | 465 kts | 224° |
| 2026-05-05 15:35 | -19.27985 | -51.26750 | 34329 ft | 464 kts | 224° |
| 2026-05-05 15:36 | -19.32684 | -51.31404 | 34330 ft | 463 kts | 224° |
| 2026-05-05 15:36 | -19.37376 | -51.36056 | 34330 ft | 463 kts | 224° |
| 2026-05-05 15:37 | -19.42065 | -51.40711 | 34330 ft | 463 kts | 224° |
| 2026-05-05 15:37 | -19.46741 | -51.45356 | 34331 ft | 463 kts | 224° |
| 2026-05-05 15:38 | -19.51425 | -51.50015 | 34331 ft | 462 kts | 224° |
| 2026-05-05 15:38 | -19.56104 | -51.54673 | 34334 ft | 462 kts | 224° |
| 2026-05-05 15:39 | -19.60785 | -51.59338 | 34333 ft | 462 kts | 224° |
| 2026-05-05 15:39 | -19.65459 | -51.64005 | 34332 ft | 462 kts | 224° |
| 2026-05-05 15:40 | -19.70125 | -51.68686 | 34336 ft | 462 kts | 224° |
| 2026-05-05 15:40 | -19.74782 | -51.73374 | 34346 ft | 463 kts | 224° |
| 2026-05-05 15:41 | -19.79437 | -51.78072 | 34347 ft | 463 kts | 224° |
| 2026-05-05 15:41 | -19.84090 | -51.82775 | 34345 ft | 463 kts | 224° |
| 2026-05-05 15:42 | -19.88744 | -51.87471 | 34346 ft | 463 kts | 224° |
| 2026-05-05 15:42 | -19.93406 | -51.92162 | 34347 ft | 462 kts | 224° |
| 2026-05-05 15:43 | -19.98061 | -51.96847 | 34347 ft | 462 kts | 224° |
| 2026-05-05 15:43 | -20.02717 | -52.01535 | 34347 ft | 462 kts | 224° |
| 2026-05-05 15:44 | -20.07376 | -52.06232 | 34347 ft | 462 kts | 224° |
| 2026-05-05 15:44 | -20.12025 | -52.10925 | 34347 ft | 462 kts | 224° |
| 2026-05-05 15:45 | -20.16675 | -52.15624 | 34347 ft | 462 kts | 224° |
| 2026-05-05 15:45 | -20.21320 | -52.20324 | 34347 ft | 462 kts | 224° |
| 2026-05-05 15:46 | -20.25954 | -52.25020 | 34347 ft | 462 kts | 224° |
| 2026-05-05 15:46 | -20.30596 | -52.29724 | 34347 ft | 462 kts | 224° |
| 2026-05-05 15:47 | -20.35241 | -52.34428 | 34347 ft | 462 kts | 224° |
| 2026-05-05 15:47 | -20.39884 | -52.39132 | 34347 ft | 462 kts | 224° |
| 2026-05-05 15:48 | -20.44536 | -52.43849 | 34347 ft | 462 kts | 224° |
| 2026-05-05 15:48 | -20.49173 | -52.48558 | 34347 ft | 462 kts | 224° |
| 2026-05-05 15:49 | -20.53814 | -52.53277 | 34347 ft | 462 kts | 224° |
| 2026-05-05 15:49 | -20.58444 | -52.57990 | 34347 ft | 462 kts | 224° |
| 2026-05-05 15:50 | -20.63084 | -52.62720 | 34347 ft | 462 kts | 224° |
| 2026-05-05 15:50 | -20.67714 | -52.67435 | 34347 ft | 462 kts | 224° |
| 2026-05-05 15:51 | -20.72355 | -52.72163 | 34347 ft | 462 kts | 224° |
| 2026-05-05 15:51 | -20.76993 | -52.76893 | 34347 ft | 462 kts | 224° |
| 2026-05-05 15:52 | -20.81616 | -52.81615 | 34347 ft | 462 kts | 224° |
| 2026-05-05 15:52 | -20.86268 | -52.86335 | 34347 ft | 462 kts | 224° |
| 2026-05-05 15:53 | -20.90934 | -52.91029 | 34347 ft | 462 kts | 223° |
| 2026-05-05 15:53 | -20.95613 | -52.95723 | 34347 ft | 462 kts | 223° |
| 2026-05-05 15:54 | -21.00284 | -53.00409 | 34347 ft | 462 kts | 223° |
| 2026-05-05 15:54 | -21.04960 | -53.05108 | 34347 ft | 462 kts | 223° |
| 2026-05-05 15:55 | -21.09597 | -53.09838 | 34347 ft | 462 kts | 224° |
| 2026-05-05 15:55 | -21.14189 | -53.14615 | 34347 ft | 462 kts | 224° |
| 2026-05-05 15:56 | -21.18771 | -53.19424 | 34347 ft | 462 kts | 225° |
| 2026-05-05 15:56 | -21.23340 | -53.24238 | 34347 ft | 462 kts | 225° |
| 2026-05-05 15:57 | -21.27900 | -53.29050 | 34347 ft | 462 kts | 225° |
| 2026-05-05 15:57 | -21.32467 | -53.33875 | 34347 ft | 462 kts | 225° |
| 2026-05-05 15:58 | -21.37029 | -53.38696 | 34347 ft | 462 kts | 225° |
| 2026-05-05 15:58 | -21.41594 | -53.43526 | 34347 ft | 462 kts | 225° |
| 2026-05-05 15:59 | -21.46175 | -53.48328 | 34347 ft | 462 kts | 224° |
| 2026-05-05 15:59 | -21.50804 | -53.53096 | 34347 ft | 462 kts | 224° |
| 2026-05-05 16:00 | -21.55438 | -53.57835 | 34347 ft | 462 kts | 224° |
| 2026-05-05 16:00 | -21.60083 | -53.62579 | 34347 ft | 462 kts | 224° |
| 2026-05-05 16:01 | -21.64728 | -53.67329 | 34347 ft | 462 kts | 224° |
| 2026-05-05 16:01 | -21.69365 | -53.72078 | 34347 ft | 462 kts | 224° |
| 2026-05-05 16:02 | -21.74013 | -53.76844 | 34212 ft | 462 kts | 225° |
| 2026-05-05 16:02 | -21.78630 | -53.81584 | 34149 ft | 459 kts | 225° |
| 2026-05-05 16:03 | -21.83234 | -53.86318 | 34144 ft | 458 kts | 225° |
| 2026-05-05 16:03 | -21.87834 | -53.91054 | 34127 ft | 458 kts | 225° |
| 2026-05-05 16:04 | -21.92421 | -53.95782 | 34120 ft | 458 kts | 225° |
| 2026-05-05 16:04 | -21.97017 | -54.00524 | 34119 ft | 458 kts | 225° |
| 2026-05-05 16:05 | -22.01599 | -54.05256 | 34116 ft | 458 kts | 225° |
| 2026-05-05 16:05 | -22.06190 | -54.10002 | 34115 ft | 458 kts | 225° |
| 2026-05-05 16:06 | -22.10769 | -54.14740 | 34115 ft | 458 kts | 225° |
| 2026-05-05 16:06 | -22.15357 | -54.19492 | 34116 ft | 458 kts | 225° |
| 2026-05-05 16:07 | -22.19943 | -54.24246 | 34114 ft | 458 kts | 225° |
| 2026-05-05 16:07 | -22.23754 | -54.28201 | 34113 ft | 458 kts | 225° |
| 2026-05-05 16:08 | -22.29101 | -54.33754 | 34112 ft | 458 kts | 225° |
| 2026-05-05 16:08 | -22.33681 | -54.38517 | 34112 ft | 458 kts | 225° |
| 2026-05-05 16:09 | -22.38258 | -54.43281 | 34110 ft | 458 kts | 225° |
| 2026-05-05 16:09 | -22.42828 | -54.48043 | 34110 ft | 458 kts | 225° |
| 2026-05-05 16:10 | -22.47405 | -54.52817 | 34116 ft | 457 kts | 225° |
| 2026-05-05 16:10 | -22.51959 | -54.57575 | 34130 ft | 455 kts | 225° |
| 2026-05-05 16:11 | -22.56483 | -54.62309 | 34137 ft | 453 kts | 225° |
| 2026-05-05 16:12 | -22.65501 | -54.71771 | 34136 ft | 452 kts | 225° |
| 2026-05-05 16:13 | -22.76725 | -54.83585 | 34141 ft | 450 kts | 225° |
| 2026-05-05 16:13 | -22.81202 | -54.88306 | 34141 ft | 450 kts | 225° |
| 2026-05-05 16:14 | -22.90142 | -54.97750 | 34140 ft | 449 kts | 225° |
| 2026-05-05 16:15 | -22.99065 | -55.07195 | 34141 ft | 449 kts | 225° |
| 2026-05-05 16:16 | -23.07982 | -55.16652 | 34141 ft | 449 kts | 225° |
| 2026-05-05 16:17 | -23.14665 | -55.23754 | 34140 ft | 449 kts | 225° |
| 2026-05-05 16:18 | -23.21341 | -55.30858 | 34140 ft | 449 kts | 225° |
| 2026-05-05 16:19 | -23.28005 | -55.37961 | 34140 ft | 448 kts | 225° |
| 2026-05-05 16:19 | -23.34674 | -55.45082 | 34140 ft | 448 kts | 225° |
| 2026-05-05 16:20 | -23.43558 | -55.54581 | 34141 ft | 448 kts | 225° |
| 2026-05-05 16:22 | -23.54658 | -55.66464 | 34141 ft | 448 kts | 225° |
| 2026-05-05 16:23 | -23.63526 | -55.75986 | 34141 ft | 448 kts | 225° |
| 2026-05-05 16:23 | -23.70180 | -55.83131 | 34141 ft | 448 kts | 225° |
| 2026-05-05 16:24 | -23.74617 | -55.87900 | 34141 ft | 448 kts | 226° |
| 2026-05-05 16:25 | -23.81262 | -55.95053 | 34140 ft | 448 kts | 226° |
| 2026-05-05 16:25 | -23.87907 | -56.02220 | 34140 ft | 448 kts | 226° |
| 2026-05-05 16:26 | -23.96762 | -56.11789 | 34140 ft | 448 kts | 226° |
| 2026-05-05 16:27 | -24.01186 | -56.16577 | 34140 ft | 448 kts | 226° |
| 2026-05-05 16:27 | -24.05604 | -56.21365 | 34140 ft | 448 kts | 226° |
| 2026-05-05 16:28 | -24.10024 | -56.26159 | 34140 ft | 448 kts | 226° |
| 2026-05-05 16:28 | -24.14449 | -56.30964 | 34140 ft | 448 kts | 226° |
| 2026-05-05 16:29 | -24.18867 | -56.35767 | 34140 ft | 448 kts | 226° |
| 2026-05-05 16:29 | -24.23283 | -56.40571 | 34140 ft | 448 kts | 226° |
| 2026-05-05 16:30 | -24.27692 | -56.45374 | 34141 ft | 448 kts | 226° |
| 2026-05-05 16:30 | -24.32107 | -56.50189 | 34141 ft | 448 kts | 226° |
| 2026-05-05 16:31 | -24.36523 | -56.55010 | 34141 ft | 448 kts | 226° |
| 2026-05-05 16:31 | -24.40926 | -56.59822 | 34141 ft | 448 kts | 226° |
| 2026-05-05 16:32 | -24.45336 | -56.64647 | 34141 ft | 448 kts | 226° |
| 2026-05-05 16:32 | -24.49743 | -56.69473 | 34141 ft | 448 kts | 226° |
| 2026-05-05 16:33 | -24.54144 | -56.74299 | 34141 ft | 448 kts | 226° |
| 2026-05-05 16:33 | -24.58555 | -56.79143 | 34141 ft | 448 kts | 226° |
| 2026-05-05 16:34 | -24.62949 | -56.83974 | 34141 ft | 448 kts | 226° |
| 2026-05-05 16:34 | -24.67348 | -56.88816 | 34141 ft | 448 kts | 226° |
| 2026-05-05 16:35 | -24.71746 | -56.93662 | 34141 ft | 448 kts | 226° |
| 2026-05-05 16:35 | -24.76138 | -56.98507 | 34140 ft | 448 kts | 226° |
| 2026-05-05 16:36 | -24.80532 | -57.03361 | 34140 ft | 448 kts | 226° |
| 2026-05-05 16:36 | -24.84921 | -57.08218 | 34140 ft | 448 kts | 226° |
| 2026-05-05 16:37 | -24.89309 | -57.13078 | 34140 ft | 448 kts | 226° |
| 2026-05-05 16:37 | -24.93695 | -57.17944 | 34140 ft | 448 kts | 226° |
| 2026-05-05 16:38 | -24.98081 | -57.22814 | 34140 ft | 448 kts | 226° |
| 2026-05-05 16:38 | -25.02462 | -57.27685 | 34140 ft | 448 kts | 226° |
| 2026-05-05 16:39 | -25.06843 | -57.32561 | 34140 ft | 448 kts | 226° |
| 2026-05-05 16:39 | -25.11222 | -57.37441 | 34140 ft | 448 kts | 226° |
| 2026-05-05 16:40 | -25.15601 | -57.42327 | 34141 ft | 448 kts | 226° |
| 2026-05-05 16:40 | -25.19974 | -57.47213 | 34141 ft | 448 kts | 226° |
| 2026-05-05 16:41 | -25.24519 | -57.51888 | 34143 ft | 449 kts | 220° |
| 2026-05-05 16:41 | -25.29571 | -57.56026 | 34017 ft | 458 kts | 221° |
| 2026-05-05 16:42 | -25.34899 | -57.59980 | 33993 ft | 465 kts | 219° |
| 2026-05-05 16:42 | -25.40332 | -57.63877 | 33993 ft | 468 kts | 219° |
| 2026-05-05 16:43 | -25.45798 | -57.67768 | 33993 ft | 468 kts | 219° |
| 2026-05-05 16:43 | -25.51256 | -57.71661 | 33993 ft | 468 kts | 219° |
| 2026-05-05 16:44 | -25.56695 | -57.75562 | 33993 ft | 466 kts | 219° |
| 2026-05-05 16:44 | -25.62102 | -57.79465 | 33993 ft | 463 kts | 219° |
| 2026-05-05 16:45 | -25.67463 | -57.83355 | 33993 ft | 460 kts | 218° |
| 2026-05-05 16:45 | -25.72773 | -57.87220 | 33993 ft | 456 kts | 218° |
| 2026-05-05 16:46 | -25.78048 | -57.91054 | 33993 ft | 452 kts | 218° |
| 2026-05-05 16:46 | -25.83279 | -57.94857 | 33993 ft | 449 kts | 218° |
| 2026-05-05 16:47 | -25.88469 | -57.98636 | 33993 ft | 446 kts | 218° |
| 2026-05-05 16:47 | -25.93625 | -58.02396 | 33993 ft | 443 kts | 217° |
| 2026-05-05 16:48 | -25.98751 | -58.06138 | 33993 ft | 440 kts | 217° |
| 2026-05-05 16:48 | -26.03852 | -58.09867 | 33993 ft | 439 kts | 217° |
| 2026-05-05 16:49 | -26.08930 | -58.13585 | 33993 ft | 438 kts | 217° |
| 2026-05-05 16:49 | -26.13999 | -58.17301 | 33993 ft | 437 kts | 217° |
| 2026-05-05 16:50 | -26.19077 | -58.21005 | 33993 ft | 437 kts | 216° |
| 2026-05-05 16:50 | -26.24221 | -58.24565 | 33993 ft | 437 kts | 216° |
| 2026-05-05 16:51 | -26.29432 | -58.28068 | 33992 ft | 439 kts | 216° |
| 2026-05-05 16:51 | -26.34700 | -58.31580 | 33993 ft | 445 kts | 217° |
| 2026-05-05 16:52 | -26.40041 | -58.35138 | 33992 ft | 454 kts | 217° |
| 2026-05-05 16:52 | -26.45508 | -58.38789 | 33993 ft | 463 kts | 217° |
| 2026-05-05 16:53 | -26.51075 | -58.42510 | 33994 ft | 469 kts | 217° |
| 2026-05-05 16:53 | -26.56685 | -58.46258 | 33993 ft | 472 kts | 217° |
| 2026-05-05 16:54 | -26.62308 | -58.50017 | 33993 ft | 473 kts | 217° |
| 2026-05-05 16:54 | -26.67953 | -58.53794 | 33993 ft | 474 kts | 217° |
| 2026-05-05 16:55 | -26.73602 | -58.57581 | 33993 ft | 475 kts | 217° |
| 2026-05-05 16:55 | -26.79253 | -58.61375 | 33993 ft | 475 kts | 217° |
| 2026-05-05 16:56 | -26.84904 | -58.65176 | 33993 ft | 475 kts | 217° |
| 2026-05-05 16:56 | -26.90553 | -58.68983 | 33993 ft | 475 kts | 217° |
| 2026-05-05 16:57 | -26.96207 | -58.72798 | 33993 ft | 475 kts | 217° |
| 2026-05-05 16:57 | -27.01853 | -58.76614 | 33993 ft | 475 kts | 217° |
| 2026-05-05 16:58 | -27.07498 | -58.80430 | 33993 ft | 475 kts | 217° |
| 2026-05-05 16:58 | -27.13145 | -58.84250 | 33993 ft | 475 kts | 217° |
| 2026-05-05 16:59 | -27.18788 | -58.88074 | 33993 ft | 475 kts | 217° |
| 2026-05-05 16:59 | -27.24433 | -58.91904 | 33993 ft | 475 kts | 217° |
| 2026-05-05 17:00 | -27.30074 | -58.95738 | 33993 ft | 475 kts | 217° |
| 2026-05-05 17:00 | -27.35705 | -58.99572 | 33993 ft | 475 kts | 217° |
| 2026-05-05 17:01 | -27.41338 | -59.03420 | 33993 ft | 474 kts | 218° |
| 2026-05-05 17:01 | -27.46530 | -59.07845 | 33997 ft | 466 kts | 227° |
| 2026-05-05 17:02 | -27.51256 | -59.12787 | 33997 ft | 463 kts | 230° |
| 2026-05-05 17:02 | -27.55793 | -59.17910 | 33993 ft | 462 kts | 231° |
| 2026-05-05 17:03 | -27.60265 | -59.23086 | 33993 ft | 462 kts | 232° |
| 2026-05-05 17:03 | -27.64731 | -59.28277 | 33993 ft | 462 kts | 232° |
| 2026-05-05 17:04 | -27.69204 | -59.33465 | 33993 ft | 462 kts | 232° |
| 2026-05-05 17:04 | -27.73686 | -59.38647 | 33993 ft | 462 kts | 231° |
| 2026-05-05 17:05 | -27.78164 | -59.43812 | 33993 ft | 462 kts | 231° |
| 2026-05-05 17:05 | -27.82657 | -59.48985 | 33993 ft | 462 kts | 231° |
| 2026-05-05 17:06 | -27.87153 | -59.54159 | 33993 ft | 462 kts | 231° |
| 2026-05-05 17:06 | -27.91647 | -59.59333 | 33993 ft | 462 kts | 231° |
| 2026-05-05 17:07 | -27.96144 | -59.64513 | 33993 ft | 462 kts | 231° |
| 2026-05-05 17:07 | -28.00638 | -59.69695 | 33993 ft | 462 kts | 231° |
| 2026-05-05 17:08 | -28.05128 | -59.74881 | 33993 ft | 462 kts | 231° |
| 2026-05-05 17:08 | -28.09615 | -59.80079 | 33993 ft | 462 kts | 232° |
| 2026-05-05 17:09 | -28.14081 | -59.85280 | 33993 ft | 462 kts | 232° |
| 2026-05-05 17:09 | -28.18551 | -59.90501 | 33993 ft | 462 kts | 232° |
| 2026-05-05 17:10 | -28.23010 | -59.95720 | 33993 ft | 462 kts | 232° |
| 2026-05-05 17:10 | -28.27467 | -60.00946 | 33993 ft | 462 kts | 232° |
| 2026-05-05 17:11 | -28.31915 | -60.06171 | 33993 ft | 462 kts | 232° |
| 2026-05-05 17:11 | -28.36367 | -60.11407 | 33993 ft | 462 kts | 232° |
| 2026-05-05 17:12 | -28.40816 | -60.16646 | 33993 ft | 462 kts | 232° |
| 2026-05-05 17:12 | -28.45272 | -60.21901 | 33993 ft | 462 kts | 232° |
| 2026-05-05 17:13 | -28.49715 | -60.27147 | 33993 ft | 462 kts | 232° |
| 2026-05-05 17:13 | -28.54156 | -60.32399 | 33993 ft | 462 kts | 232° |
| 2026-05-05 17:14 | -28.58594 | -60.37653 | 33993 ft | 461 kts | 232° |
| 2026-05-05 17:14 | -28.63028 | -60.42911 | 33993 ft | 461 kts | 232° |
| 2026-05-05 17:15 | -28.67455 | -60.48167 | 33993 ft | 460 kts | 232° |
| 2026-05-05 17:15 | -28.71871 | -60.53419 | 33993 ft | 460 kts | 232° |
| 2026-05-05 17:16 | -28.76293 | -60.58682 | 33993 ft | 461 kts | 232° |
| 2026-05-05 17:16 | -28.80741 | -60.63932 | 33993 ft | 461 kts | 232° |
| 2026-05-05 17:17 | -28.85187 | -60.69156 | 33993 ft | 460 kts | 232° |
| 2026-05-05 17:17 | -28.89633 | -60.74377 | 33993 ft | 459 kts | 232° |
| 2026-05-05 17:18 | -28.94071 | -60.79596 | 33993 ft | 459 kts | 232° |
| 2026-05-05 17:18 | -28.98476 | -60.84780 | 33956 ft | 450 kts | 232° |
| 2026-05-05 17:19 | -29.02777 | -60.89844 | 33940 ft | 440 kts | 232° |
| 2026-05-05 17:19 | -29.06988 | -60.94826 | 33939 ft | 435 kts | 232° |
| 2026-05-05 17:20 | -29.11162 | -60.99797 | 33935 ft | 436 kts | 234° |
| 2026-05-05 17:20 | -29.15363 | -61.04845 | 33938 ft | 441 kts | 234° |
| 2026-05-05 17:21 | -29.19600 | -61.09953 | 33935 ft | 445 kts | 234° |
| 2026-05-05 17:22 | -29.26001 | -61.17683 | 33934 ft | 448 kts | 234° |
| 2026-05-05 17:22 | -29.30286 | -61.22864 | 33934 ft | 449 kts | 234° |
| 2026-05-05 17:23 | -29.34577 | -61.28058 | 33934 ft | 450 kts | 234° |
| 2026-05-05 17:23 | -29.38871 | -61.33262 | 33934 ft | 450 kts | 234° |
| 2026-05-05 17:24 | -29.43166 | -61.38474 | 33934 ft | 451 kts | 234° |
| 2026-05-05 17:24 | -29.47463 | -61.43695 | 33934 ft | 451 kts | 234° |
| 2026-05-05 17:25 | -29.51757 | -61.48921 | 33934 ft | 451 kts | 234° |
| 2026-05-05 17:25 | -29.56050 | -61.54154 | 33934 ft | 451 kts | 234° |
| 2026-05-05 17:26 | -29.60345 | -61.59396 | 33934 ft | 451 kts | 234° |
| 2026-05-05 17:26 | -29.64631 | -61.64635 | 33934 ft | 451 kts | 234° |
| 2026-05-05 17:27 | -29.68921 | -61.69886 | 33934 ft | 451 kts | 234° |
| 2026-05-05 17:27 | -29.73211 | -61.75145 | 33934 ft | 451 kts | 234° |
| 2026-05-05 17:28 | -29.77496 | -61.80406 | 33934 ft | 452 kts | 235° |
| 2026-05-05 17:28 | -29.81780 | -61.85674 | 33934 ft | 452 kts | 235° |
| 2026-05-05 17:29 | -29.86016 | -61.90983 | 33935 ft | 449 kts | 237° |
| 2026-05-05 17:29 | -29.89951 | -61.96518 | 33936 ft | 446 kts | 239° |
| 2026-05-05 17:30 | -29.93720 | -62.02175 | 33934 ft | 445 kts | 240° |
| 2026-05-05 17:30 | -29.97424 | -62.07871 | 33934 ft | 445 kts | 241° |
| 2026-05-05 17:31 | -30.01112 | -62.13588 | 33934 ft | 444 kts | 241° |
| 2026-05-05 17:31 | -30.04784 | -62.19292 | 33934 ft | 444 kts | 241° |
| 2026-05-05 17:32 | -30.08464 | -62.25009 | 33934 ft | 444 kts | 241° |
| 2026-05-05 17:32 | -30.12141 | -62.30720 | 33934 ft | 444 kts | 241° |
| 2026-05-05 17:33 | -30.15819 | -62.36435 | 33934 ft | 444 kts | 241° |
| 2026-05-05 17:33 | -30.19492 | -62.42144 | 33934 ft | 443 kts | 241° |
| 2026-05-05 17:34 | -30.23161 | -62.47854 | 33934 ft | 443 kts | 241° |
| 2026-05-05 17:34 | -30.26824 | -62.53561 | 33934 ft | 443 kts | 241° |
| 2026-05-05 17:35 | -30.30474 | -62.59258 | 33934 ft | 442 kts | 241° |
| 2026-05-05 17:35 | -30.34127 | -62.64969 | 33934 ft | 442 kts | 241° |
| 2026-05-05 17:36 | -30.37772 | -62.70682 | 33934 ft | 442 kts | 241° |
| 2026-05-05 17:36 | -30.41412 | -62.76400 | 33934 ft | 441 kts | 241° |
| 2026-05-05 17:37 | -30.45039 | -62.82110 | 33934 ft | 441 kts | 241° |
| 2026-05-05 17:37 | -30.48672 | -62.87842 | 33934 ft | 442 kts | 241° |
| 2026-05-05 17:38 | -30.52299 | -62.93574 | 33934 ft | 442 kts | 241° |
| 2026-05-05 17:38 | -30.55923 | -62.99311 | 33934 ft | 442 kts | 241° |
| 2026-05-05 17:39 | -30.59545 | -63.05053 | 33934 ft | 442 kts | 241° |
| 2026-05-05 17:39 | -30.63176 | -63.10818 | 33934 ft | 443 kts | 241° |
| 2026-05-05 17:40 | -30.66795 | -63.16575 | 33934 ft | 443 kts | 242° |
| 2026-05-05 17:40 | -30.70420 | -63.22351 | 33934 ft | 444 kts | 242° |
| 2026-05-05 17:41 | -30.74052 | -63.28147 | 33934 ft | 444 kts | 242° |
| 2026-05-05 17:41 | -30.77825 | -63.33836 | 33937 ft | 448 kts | 238° |
| 2026-05-05 17:42 | -30.81928 | -63.39303 | 33936 ft | 451 kts | 236° |
| 2026-05-05 17:42 | -30.86167 | -63.44663 | 33934 ft | 452 kts | 235° |
| 2026-05-05 17:43 | -30.90455 | -63.49993 | 33934 ft | 452 kts | 234° |
| 2026-05-05 17:43 | -30.94746 | -63.55314 | 33934 ft | 452 kts | 234° |
| 2026-05-05 17:44 | -30.99036 | -63.60657 | 33934 ft | 452 kts | 235° |
| 2026-05-05 17:44 | -31.03303 | -63.65997 | 33934 ft | 451 kts | 235° |
| 2026-05-05 17:45 | -31.06891 | -63.71782 | 33933 ft | 431 kts | 254° |
| 2026-05-05 17:45 | -31.08157 | -63.78435 | 33940 ft | 418 kts | 270° |
| 2026-05-05 17:46 | -31.08213 | -63.85155 | 33939 ft | 414 kts | 276° |
| 2026-05-05 17:46 | -31.07937 | -63.91852 | 33936 ft | 414 kts | 276° |
| 2026-05-05 17:47 | -31.07858 | -63.98555 | 33934 ft | 415 kts | 274° |
| 2026-05-05 17:47 | -31.07940 | -64.05276 | 33933 ft | 417 kts | 271° |
| 2026-05-05 17:47 | -31.08566 | -64.08614 | 33930 ft | 429 kts | 255° |
| 2026-05-05 17:48 | -31.10069 | -64.11681 | 33935 ft | 446 kts | 239° |
| 2026-05-05 17:48 | -31.12342 | -64.14206 | 33937 ft | 464 kts | 224° |
| 2026-05-05 17:48 | -31.15213 | -64.16068 | 33942 ft | 479 kts | 212° |
| 2026-05-05 17:49 | -31.21652 | -64.18423 | 33940 ft | 492 kts | 201° |
| 2026-05-05 17:49 | -31.28360 | -64.20061 | 33936 ft | 494 kts | 199° |
| 2026-05-05 17:50 | -31.34761 | -64.22432 | 33930 ft | 470 kts | 219° |
| 2026-05-05 17:50 | -31.37257 | -64.24761 | 33935 ft | 452 kts | 234° |
| 2026-05-05 17:50 | -31.39007 | -64.27688 | 33937 ft | 435 kts | 250° |
| 2026-05-05 17:50 | -31.39912 | -64.30975 | 33938 ft | 420 kts | 266° |
| 2026-05-05 17:51 | -31.39915 | -64.34337 | 33938 ft | 411 kts | 282° |
| 2026-05-05 17:51 | -31.39031 | -64.37473 | 33938 ft | 406 kts | 298° |
| 2026-05-05 17:51 | -31.37349 | -64.40111 | 33938 ft | 408 kts | 314° |
| 2026-05-05 17:51 | -31.35023 | -64.42009 | 33938 ft | 416 kts | 329° |
| 2026-05-05 17:52 | -31.32231 | -64.43001 | 33938 ft | 428 kts | 345° |
| 2026-05-05 17:52 | -31.29212 | -64.42968 | 33938 ft | 444 kts | 1° |
| 2026-05-05 17:52 | -31.26213 | -64.41877 | 33938 ft | 463 kts | 17° |
| 2026-05-05 17:52 | -31.23493 | -64.39786 | 33938 ft | 481 kts | 33° |
| 2026-05-05 17:53 | -31.21255 | -64.36804 | 33938 ft | 499 kts | 49° |
| 2026-05-05 17:53 | -31.19695 | -64.33121 | 33938 ft | 515 kts | 64° |
| 2026-05-05 17:53 | -31.18955 | -64.28991 | 33938 ft | 528 kts | 80° |
| 2026-05-05 17:53 | -31.19106 | -64.24687 | 33938 ft | 537 kts | 96° |
| 2026-05-05 17:54 | -31.20159 | -64.20488 | 33938 ft | 542 kts | 112° |
| 2026-05-05 17:54 | -31.22049 | -64.16691 | 33938 ft | 543 kts | 128° |
| 2026-05-05 17:54 | -31.24653 | -64.13543 | 33938 ft | 539 kts | 143° |
| 2026-05-05 17:54 | -31.27782 | -64.11251 | 33937 ft | 526 kts | 159° |
| 2026-05-05 17:55 | -31.31156 | -64.09955 | 33806 ft | 499 kts | 175° |
| 2026-05-05 17:55 | -31.34513 | -64.09662 | 33247 ft | 478 kts | 190° |
| 2026-05-05 17:55 | -31.37696 | -64.10379 | 32509 ft | 458 kts | 206° |
| 2026-05-05 17:55 | -31.40461 | -64.12035 | 31767 ft | 439 kts | 223° |
| 2026-05-05 17:56 | -31.42599 | -64.14456 | 31025 ft | 422 kts | 239° |
| 2026-05-05 17:56 | -31.43956 | -64.17410 | 30282 ft | 407 kts | 255° |
| 2026-05-05 17:56 | -31.44432 | -64.20602 | 29540 ft | 396 kts | 272° |
| 2026-05-05 17:56 | -31.44007 | -64.23746 | 28797 ft | 391 kts | 289° |
| 2026-05-05 17:57 | -31.42732 | -64.26535 | 28054 ft | 391 kts | 306° |
| 2026-05-05 17:57 | -31.40742 | -64.28685 | 27314 ft | 396 kts | 323° |
| 2026-05-05 17:57 | -31.38214 | -64.29993 | 26572 ft | 404 kts | 340° |
| 2026-05-05 17:57 | -31.35402 | -64.30303 | 25831 ft | 414 kts | 358° |
| 2026-05-05 17:58 | -31.32572 | -64.29563 | 25090 ft | 424 kts | 16° |
| 2026-05-05 17:58 | -31.30000 | -64.27813 | 24347 ft | 434 kts | 34° |
| 2026-05-05 17:58 | -31.27952 | -64.25210 | 23611 ft | 443 kts | 52° |
| 2026-05-05 17:58 | -31.26606 | -64.21956 | 22870 ft | 449 kts | 70° |
| 2026-05-05 17:59 | -31.26109 | -64.18360 | 22128 ft | 450 kts | 89° |
| 2026-05-05 17:59 | -31.26508 | -64.14770 | 21386 ft | 447 kts | 107° |
| 2026-05-05 17:59 | -31.27759 | -64.11491 | 20640 ft | 440 kts | 125° |
| 2026-05-05 17:59 | -31.29731 | -64.08833 | 19894 ft | 429 kts | 143° |
| 2026-05-05 18:00 | -31.32220 | -64.07030 | 19148 ft | 417 kts | 160° |
| 2026-05-05 18:00 | -31.34980 | -64.06225 | 18401 ft | 406 kts | 178° |
| 2026-05-05 18:00 | -31.37735 | -64.06464 | 17655 ft | 396 kts | 195° |
| 2026-05-05 18:00 | -31.40236 | -64.07698 | 16896 ft | 389 kts | 215° |
| 2026-05-05 18:01 | -31.42215 | -64.09782 | 16152 ft | 382 kts | 233° |
| 2026-05-05 18:01 | -31.43470 | -64.12491 | 15422 ft | 381 kts | 249° |
| 2026-05-05 18:01 | -31.43885 | -64.15516 | 14658 ft | 379 kts | 270° |
| 2026-05-05 18:01 | -31.43409 | -64.18527 | 13919 ft | 379 kts | 287° |
| 2026-05-05 18:02 | -31.42090 | -64.21200 | 13174 ft | 384 kts | 307° |
| 2026-05-05 18:02 | -31.40079 | -64.23230 | 12430 ft | 383 kts | 328° |
| 2026-05-05 18:02 | -31.37624 | -64.24361 | 11687 ft | 382 kts | 346° |
| 2026-05-05 18:02 | -31.34982 | -64.24476 | 10943 ft | 383 kts | 5° |
| 2026-05-05 18:03 | -31.32443 | -64.23562 | 10195 ft | 385 kts | 24° |
| 2026-05-05 18:03 | -31.30294 | -64.21720 | 9450 ft | 386 kts | 43° |
| 2026-05-05 18:03 | -31.28772 | -64.19149 | 8702 ft | 387 kts | 62° |
| 2026-05-05 18:03 | -31.28051 | -64.16142 | 7961 ft | 386 kts | 82° |
| 2026-05-05 18:04 | -31.28208 | -64.13043 | 7215 ft | 384 kts | 101° |
| 2026-05-05 18:04 | -31.29223 | -64.10185 | 6471 ft | 383 kts | 120° |
| 2026-05-05 18:04 | -31.30978 | -64.07882 | 5720 ft | 380 kts | 140° |
| 2026-05-05 18:04 | -31.33258 | -64.06407 | 5023 ft | 376 kts | 161° |
| 2026-05-05 18:05 | -31.35763 | -64.06020 | 4982 ft | 352 kts | 182° |
| 2026-05-05 18:05 | -31.38043 | -64.06665 | 4990 ft | 328 kts | 204° |
| 2026-05-05 18:05 | -31.39805 | -64.08162 | 4991 ft | 306 kts | 227° |
| 2026-05-05 18:05 | -31.40822 | -64.10227 | 4991 ft | 285 kts | 252° |
| 2026-05-05 18:06 | -31.40957 | -64.12435 | 4992 ft | 266 kts | 278° |
| 2026-05-05 18:06 | -31.40568 | -64.13759 | 4992 ft | 253 kts | 297° |
| 2026-05-05 18:06 | -31.39067 | -64.15692 | 5009 ft | 233 kts | 320° |
| 2026-05-05 18:06 | -31.37800 | -64.16773 | 4999 ft | 220 kts | 325° |
| 2026-05-05 18:07 | -31.36553 | -64.17707 | 4995 ft | 207 kts | 328° |
| 2026-05-05 18:07 | -31.35349 | -64.18543 | 4994 ft | 196 kts | 329° |
| 2026-05-05 18:07 | -31.34183 | -64.19301 | 4996 ft | 189 kts | 331° |
| 2026-05-05 18:07 | -31.33018 | -64.20000 | 5001 ft | 189 kts | 333° |
| 2026-05-05 18:08 | -31.31815 | -64.20632 | 5002 ft | 191 kts | 337° |
| 2026-05-05 18:08 | -31.30532 | -64.21013 | 4973 ft | 194 kts | 356° |
| 2026-05-05 18:08 | -31.29270 | -64.20497 | 4991 ft | 198 kts | 32° |
| 2026-05-05 18:08 | -31.28496 | -64.19156 | 5004 ft | 207 kts | 69° |
| 2026-05-05 18:09 | -31.28519 | -64.17472 | 5006 ft | 216 kts | 104° |
| 2026-05-05 18:09 | -31.29373 | -64.16024 | 5004 ft | 222 kts | 137° |
| 2026-05-05 18:09 | -31.30786 | -64.15340 | 5004 ft | 224 kts | 171° |
| 2026-05-05 18:09 | -31.32288 | -64.15652 | 5003 ft | 222 kts | 205° |
| 2026-05-05 18:10 | -31.33390 | -64.16852 | 5001 ft | 218 kts | 238° |
| 2026-05-05 18:10 | -31.33736 | -64.18534 | 5001 ft | 214 kts | 272° |
| 2026-05-05 18:10 | -31.33222 | -64.20123 | 5001 ft | 211 kts | 305° |
| 2026-05-05 18:10 | -31.32037 | -64.21081 | 5003 ft | 211 kts | 339° |
| 2026-05-05 18:11 | -31.30596 | -64.21097 | 5002 ft | 213 kts | 12° |
| 2026-05-05 18:11 | -31.29372 | -64.20141 | 5002 ft | 217 kts | 46° |
| 2026-05-05 18:11 | -31.28801 | -64.18525 | 5001 ft | 220 kts | 80° |
| 2026-05-05 18:11 | -31.29082 | -64.16793 | 5001 ft | 222 kts | 113° |
| 2026-05-05 18:12 | -31.30136 | -64.15502 | 5001 ft | 223 kts | 147° |
| 2026-05-05 18:12 | -31.31621 | -64.15084 | 5002 ft | 222 kts | 181° |
| 2026-05-05 18:12 | -31.33047 | -64.15672 | 5002 ft | 219 kts | 214° |
| 2026-05-05 18:12 | -31.33710 | -64.16497 | 5001 ft | 217 kts | 236° |
| 2026-05-05 18:13 | -31.34078 | -64.17902 | 4988 ft | 214 kts | 269° |
| 2026-05-05 18:13 | -31.33436 | -64.19371 | 4970 ft | 211 kts | 325° |
| 2026-05-05 18:13 | -31.32109 | -64.19146 | 4975 ft | 214 kts | 47° |
| 2026-05-05 18:14 | -31.31697 | -64.17524 | 5277 ft | 215 kts | 78° |
| 2026-05-05 18:14 | -31.31627 | -64.17049 | 5248 ft | 221 kts | 77° |
| 2026-05-05 18:14 | -31.30937 | -64.15426 | 5081 ft | 229 kts | 49° |
| 2026-05-05 18:14 | -31.29738 | -64.14241 | 5035 ft | 223 kts | 35° |
| 2026-05-05 18:15 | -31.28480 | -64.13245 | 5003 ft | 213 kts | 32° |
| 2026-05-05 18:15 | -31.27264 | -64.12328 | 4994 ft | 205 kts | 31° |
| 2026-05-05 18:15 | -31.26337 | -64.11629 | 4995 ft | 203 kts | 32° |
| 2026-05-05 18:15 | -31.25312 | -64.10832 | 4975 ft | 203 kts | 30° |
| 2026-05-05 18:16 | -31.24028 | -64.10102 | 4861 ft | 208 kts | 23° |
| 2026-05-05 18:16 | -31.22710 | -64.09428 | 4808 ft | 205 kts | 22° |
| 2026-05-05 18:16 | -31.21414 | -64.08773 | 4798 ft | 202 kts | 22° |
| 2026-05-05 18:16 | -31.20566 | -64.08415 | 4791 ft | 201 kts | 16° |
| 2026-05-05 18:17 | -31.19187 | -64.08251 | 4803 ft | 199 kts | 360° |
| 2026-05-05 18:17 | -31.17803 | -64.08331 | 4805 ft | 201 kts | 355° |
| 2026-05-05 18:17 | -31.16396 | -64.08442 | 4801 ft | 203 kts | 355° |
| 2026-05-05 18:17 | -31.14991 | -64.08553 | 4800 ft | 203 kts | 355° |
| 2026-05-05 18:18 | -31.13585 | -64.08662 | 4799 ft | 203 kts | 355° |
| 2026-05-05 18:18 | -31.12179 | -64.08770 | 4800 ft | 202 kts | 355° |
| 2026-05-05 18:18 | -31.10785 | -64.08875 | 4801 ft | 201 kts | 355° |
| 2026-05-05 18:18 | -31.09390 | -64.08976 | 4802 ft | 201 kts | 355° |
| 2026-05-05 18:19 | -31.08004 | -64.09075 | 4802 ft | 200 kts | 355° |
| 2026-05-05 18:19 | -31.06616 | -64.09173 | 4802 ft | 199 kts | 355° |
| 2026-05-05 18:19 | -31.05237 | -64.09271 | 4802 ft | 199 kts | 355° |
| 2026-05-05 18:19 | -31.03859 | -64.09370 | 4802 ft | 199 kts | 355° |
| 2026-05-05 18:20 | -31.02481 | -64.09468 | 4802 ft | 199 kts | 355° |
| 2026-05-05 18:20 | -31.01098 | -64.09568 | 4802 ft | 199 kts | 355° |
| 2026-05-05 18:20 | -30.99717 | -64.09667 | 4802 ft | 199 kts | 355° |
| 2026-05-05 18:20 | -30.98493 | -64.09833 | 4783 ft | 199 kts | 345° |
| 2026-05-05 18:21 | -30.97385 | -64.10740 | 4785 ft | 197 kts | 310° |
| 2026-05-05 18:21 | -30.96919 | -64.12233 | 4831 ft | 201 kts | 282° |
| 2026-05-05 18:21 | -30.96771 | -64.13885 | 4821 ft | 209 kts | 276° |
| 2026-05-05 18:21 | -30.96672 | -64.15472 | 4806 ft | 211 kts | 275° |
| 2026-05-05 18:22 | -30.96738 | -64.17156 | 4771 ft | 211 kts | 257° |
| 2026-05-05 18:22 | -30.97061 | -64.17932 | 4779 ft | 210 kts | 240° |
| 2026-05-05 18:22 | -30.97734 | -64.18782 | 4815 ft | 209 kts | 225° |
| 2026-05-05 18:22 | -30.98939 | -64.19757 | 4798 ft | 214 kts | 209° |
| 2026-05-05 18:23 | -31.00394 | -64.20095 | 4819 ft | 216 kts | 186° |
| 2026-05-05 18:23 | -31.01902 | -64.20114 | 4812 ft | 218 kts | 181° |
| 2026-05-05 18:23 | -31.03413 | -64.20090 | 4803 ft | 217 kts | 180° |
| 2026-05-05 18:23 | -31.04396 | -64.20072 | 4801 ft | 215 kts | 180° |
| 2026-05-05 18:24 | -31.05521 | -64.20065 | 4800 ft | 213 kts | 181° |
| 2026-05-05 18:24 | -31.06990 | -64.20091 | 4759 ft | 211 kts | 182° |
| 2026-05-05 18:24 | -31.08170 | -64.20116 | 4624 ft | 213 kts | 182° |
| 2026-05-05 18:24 | -31.09640 | -64.20200 | 4448 ft | 211 kts | 186° |
| 2026-05-05 18:25 | -31.11076 | -64.20466 | 4277 ft | 208 kts | 189° |
| 2026-05-05 18:25 | -31.12020 | -64.20658 | 4109 ft | 209 kts | 188° |
| 2026-05-05 18:25 | -31.13961 | -64.20997 | 3577 ft | 215 kts | 186° |
| 2026-05-05 18:25 | -31.15451 | -64.21255 | 3178 ft | 218 kts | 188° |
| 2026-05-05 18:26 | -31.16958 | -64.21492 | 2843 ft | 218 kts | 188° |
| 2026-05-05 18:26 | -31.18422 | -64.21693 | 2732 ft | 206 kts | 187° |
| 2026-05-05 18:26 | -31.19797 | -64.21879 | 2697 ft | 193 kts | 187° |
| 2026-05-05 18:26 | -31.20837 | -64.22031 | 2693 ft | 187 kts | 187° |
| 2026-05-05 18:27 | -31.22129 | -64.22083 | 2672 ft | 187 kts | 173° |
| 2026-05-05 18:27 | -31.23296 | -64.21471 | 2727 ft | 184 kts | 151° |
| 2026-05-05 18:27 | -31.24465 | -64.20837 | 2616 ft | 190 kts | 163° |
| 2026-05-05 18:27 | -31.25786 | -64.20867 | 2391 ft | 191 kts | 186° |
| 2026-05-05 18:28 | -31.28499 | -64.20858 | 1879 ft | 198 kts | 176° |
| 2026-05-05 18:28 | -31.29854 | -64.20845 | 1615 ft | 191 kts | 180° |
| 2026-05-05 18:28 | -31.31076 | -64.20838 | 1616 ft | 162 kts | 175° |
| 2026-05-05 18:29 | -31.31675 | -64.20811 | 1616 ft | 134 kts | 182° |
| 2026-05-05 18:29 | -31.32331 | -64.20829 | 1616 ft | 54 kts | 175° |
| 2026-05-05 18:29 | -31.32440 | -64.20835 | 1616 ft | 1 kts | 232° |
| 2026-05-05 18:29 | -31.32435 | -64.20859 | 1616 ft | 4 kts | 320° |
| 2026-05-05 18:30 | -31.32399 | -64.20846 | 1616 ft | 8 kts | 40° |
| 2026-05-05 18:30 | -31.32387 | -64.20832 | 1616 ft | 5 kts | 52° |
| 2026-05-05 18:30 | -31.32347 | -64.20816 | 1616 ft | 9 kts | 354° |
| 2026-05-05 18:30 | -31.32286 | -64.20867 | 1616 ft | 14 kts | 294° |
| 2026-05-05 18:31 | -31.32211 | -64.20937 | 1616 ft | 17 kts | 357° |
| 2026-05-05 18:31 | -31.32071 | -64.20938 | 1616 ft | 23 kts | 359° |
| 2026-05-05 18:31 | -31.31895 | -64.20976 | 1616 ft | 27 kts | 0° |
| 2026-05-05 18:31 | -31.31712 | -64.20964 | 1616 ft | 25 kts | 327° |
| 2026-05-05 18:32 | -31.31684 | -64.21060 | 1616 ft | 0 kts | 284° |
| 2026-05-05 18:32 | -31.31684 | -64.21061 | 1616 ft | 0 kts | 284° |
| 2026-05-05 18:32 | -31.31684 | -64.21062 | 1616 ft | 0 kts | 284° |